Time;durP1;ratioP1;P1;durP2;ratioP2;P2;SDS_P1;SDS_P2;PMS_P1;PMS_P2;Temp;Humidity;BMP_temperature;BMP_pressure;BME280_temperature;BME280_humidity;BME280_pressure;Samples;Min_cycle;Max_cycle;Signal;HPM_P1;HPM_P2
2024/01/05 00:01:36;;;;;;;6.95;3.65;;;8.40;99.90;;;;;;5007222;28;20068;-84
2024/01/05 00:04:02;;;;;;;4.38;2.60;;;8.40;99.90;;;;;;5001103;28;20060;-82
2024/01/05 00:06:28;;;;;;;4.28;2.33;;;8.40;99.90;;;;;;5004959;28;20058;-82
2024/01/05 00:08:54;;;;;;;5.30;2.40;;;8.40;99.90;;;;;;5004921;28;20067;-81
2024/01/05 00:11:20;;;;;;;4.63;2.33;;;8.40;99.90;;;;;;5004583;28;20600;-82
2024/01/05 00:13:46;;;;;;;5.80;2.35;;;8.40;99.90;;;;;;5004993;28;20026;-82
2024/01/05 00:16:22;;;;;;;4.28;2.15;;;8.40;99.90;;;;;;5004920;28;20021;-80
2024/01/05 00:18:47;;;;;;;6.68;2.58;;;8.40;99.90;;;;;;5002496;28;20050;-80
2024/01/05 00:21:19;;;;;;;4.78;2.10;;;8.40;99.90;;;;;;5008853;28;20028;-81
2024/01/05 00:23:45;;;;;;;;;;;8.40;99.90;;;;;;5012514;28;20100;-82
2024/01/05 00:26:10;;;;;;;4.38;1.95;;;8.40;99.90;;;;;;5003664;28;19909;-80
2024/01/05 00:28:36;;;;;;;4.82;2.20;;;8.40;99.90;;;;;;5006589;28;20467;-83
2024/01/05 00:31:01;;;;;;;5.82;1.88;;;8.40;99.90;;;;;;5006061;28;20099;-82
2024/01/05 00:33:27;;;;;;;4.75;2.60;;;8.40;99.90;;;;;;5010423;28;20025;-80
2024/01/05 00:35:52;;;;;;;4.57;2.40;;;8.40;99.90;;;;;;5008979;28;20041;-83
2024/01/05 00:38:18;;;;;;;5.65;2.40;;;8.40;99.90;;;;;;5006792;28;20033;-83
2024/01/05 00:40:43;;;;;;;6.07;2.92;;;8.40;99.90;;;;;;5003064;28;20030;-81
2024/01/05 00:43:09;;;;;;;6.57;2.80;;;8.40;99.90;;;;;;5007585;28;20042;-80
2024/01/05 00:45:34;;;;;;;6.15;2.58;;;8.40;99.90;;;;;;5010781;28;20069;-81
2024/01/05 00:48:00;;;;;;;4.05;2.38;;;8.40;99.90;;;;;;5008993;28;20026;-81
2024/01/05 00:50:25;;;;;;;4.18;2.15;;;8.50;99.90;;;;;;5010282;28;20022;-81
2024/01/05 00:52:51;;;;;;;4.95;2.38;;;8.50;99.90;;;;;;5011488;28;20058;-81
2024/01/05 00:55:16;;;;;;;5.13;2.45;;;8.60;99.90;;;;;;5002230;28;20048;-81
2024/01/05 00:57:42;;;;;;;4.60;2.08;;;8.60;99.90;;;;;;5012414;28;20432;-79
2024/01/05 01:00:09;;;;;;;3.35;2.10;;;8.60;99.90;;;;;;5011816;28;20069;-81
2024/01/05 01:02:37;;;;;;;4.00;1.95;;;8.60;99.90;;;;;;5011766;28;20018;-81
2024/01/05 01:05:03;;;;;;;4.82;2.10;;;8.70;99.90;;;;;;5009134;28;20076;-80
2024/01/05 01:07:29;;;;;;;3.38;1.90;;;8.70;99.90;;;;;;5014034;28;20026;-81
2024/01/05 01:09:55;;;;;;;6.15;2.20;;;8.80;99.90;;;;;;5012806;28;20347;-80
2024/01/05 01:12:20;;;;;;;3.80;1.83;;;8.80;99.90;;;;;;5004730;28;20029;-82
2024/01/05 01:14:46;;;;;;;4.07;1.95;;;8.80;99.90;;;;;;5008760;28;20045;-81
2024/01/05 01:17:11;;;;;;;4.63;2.00;;;8.80;99.90;;;;;;5008833;28;20022;-82
2024/01/05 01:19:37;;;;;;;3.03;1.67;;;8.90;99.90;;;;;;5010667;28;20057;-81
2024/01/05 01:22:03;;;;;;;3.28;1.88;;;8.80;99.90;;;;;;5011318;28;20033;-80
2024/01/05 01:24:29;;;;;;;5.72;2.30;;;8.80;99.90;;;;;;5006420;28;20039;-83
2024/01/05 01:26:54;;;;;;;3.92;2.20;;;8.80;99.90;;;;;;5010346;28;20037;-80
2024/01/05 01:29:20;;;;;;;3.83;2.28;;;8.80;99.90;;;;;;5006865;28;20477;-82
2024/01/05 01:31:45;;;;;;;6.15;2.58;;;8.80;99.90;;;;;;5013206;28;20269;-82
2024/01/05 01:34:11;;;;;;;4.30;1.90;;;8.70;99.90;;;;;;5013284;28;20551;-82
2024/01/05 01:36:36;;;;;;;3.33;1.83;;;8.80;99.90;;;;;;5013468;28;20026;-80
2024/01/05 01:39:04;;;;;;;3.63;1.60;;;8.80;99.90;;;;;;5011259;28;20033;-82
2024/01/05 01:41:30;;;;;;;3.97;2.10;;;8.80;99.90;;;;;;5005944;28;20022;-80
2024/01/05 01:43:55;;;;;;;3.50;1.58;;;8.80;99.90;;;;;;5004593;28;20580;-80
2024/01/05 01:46:23;;;;;;;3.65;1.80;;;8.80;99.90;;;;;;5012270;28;20036;-80
2024/01/05 01:48:49;;;;;;;2.47;1.63;;;8.80;99.90;;;;;;5012509;28;20390;-79
2024/01/05 01:51:15;;;;;;;3.25;1.80;;;8.80;99.90;;;;;;5010659;28;20474;-80
2024/01/05 01:53:41;;;;;;;2.90;1.80;;;8.80;99.90;;;;;;5013179;28;20025;-81
2024/01/05 01:56:10;;;;;;;3.03;1.77;;;8.80;99.90;;;;;;5006751;28;20025;-80
2024/01/05 01:58:38;;;;;;;3.67;1.70;;;8.80;99.90;;;;;;5011313;28;20032;-80
2024/01/05 02:01:05;;;;;;;2.80;1.42;;;8.80;99.90;;;;;;5010747;28;20036;-83
2024/01/05 02:03:31;;;;;;;4.60;2.58;;;8.80;99.90;;;;;;5009102;28;20033;-83
2024/01/05 02:05:57;;;;;;;5.57;2.67;;;8.80;99.90;;;;;;5009420;28;20087;-81
2024/01/05 02:08:23;;;;;;;3.83;1.95;;;8.80;99.90;;;;;;5008932;28;20129;-82
2024/01/05 02:10:48;;;;;;;3.78;2.10;;;8.80;99.90;;;;;;5013216;28;20037;-84
2024/01/05 02:13:15;;;;;;;2.80;1.55;;;8.80;99.90;;;;;;5009207;28;20076;-82
2024/01/05 02:15:40;;;;;;;5.88;1.95;;;8.90;99.90;;;;;;5012433;28;20030;-82
2024/01/05 02:18:14;;;;;;;4.28;1.70;;;8.90;99.90;;;;;;5009672;28;20025;-82
2024/01/05 02:20:40;;;;;;;4.55;1.77;;;8.90;99.90;;;;;;5004039;28;20022;-82
2024/01/05 02:23:20;;;;;;;3.45;1.98;;;8.90;99.90;;;;;;5008713;28;20024;-81
2024/01/05 02:25:46;;;;;;;2.70;1.67;;;8.90;99.90;;;;;;5010743;28;20037;-83
2024/01/05 02:28:11;;;;;;;6.40;2.08;;;8.90;99.90;;;;;;5012826;28;20030;-82
2024/01/05 02:30:37;;;;;;;5.95;2.08;;;8.90;99.90;;;;;;5004493;28;20088;-81
2024/01/05 02:33:02;;;;;;;4.85;1.95;;;8.90;99.90;;;;;;5006491;28;20578;-81
2024/01/05 02:35:28;;;;;;;4.65;2.03;;;8.90;99.90;;;;;;5005822;28;20022;-80
2024/01/05 02:37:53;;;;;;;4.15;1.40;;;8.90;99.90;;;;;;5009832;28;20022;-82
2024/01/05 02:40:19;;;;;;;2.60;1.45;;;8.90;99.90;;;;;;5008436;28;20490;-81
2024/01/05 02:42:44;;;;;;;4.28;1.83;;;8.90;99.90;;;;;;5014955;28;20048;-82
2024/01/05 02:45:10;;;;;;;2.08;1.40;;;8.90;99.90;;;;;;5016670;28;20026;-82
2024/01/05 02:47:36;;;;;;;3.15;1.45;;;9.00;99.90;;;;;;5015930;28;20041;-82
2024/01/05 02:50:02;;;;;;;2.65;1.40;;;9.00;99.90;;;;;;5015796;28;20389;-83
2024/01/05 02:52:28;;;;;;;6.50;1.40;;;9.00;99.90;;;;;;5017407;28;20022;-82
2024/01/05 02:54:53;;;;;;;4.70;1.60;;;9.00;99.90;;;;;;5016225;28;20029;-82
2024/01/05 02:57:19;;;;;;;2.78;1.35;;;9.00;99.90;;;;;;5015475;28;20033;-81
2024/01/05 02:59:44;;;;;;;5.68;1.63;;;9.00;99.90;;;;;;5017019;28;20022;-84
2024/01/05 03:02:10;;;;;;;2.78;1.52;;;9.00;99.90;;;;;;5022174;28;20477;-83
2024/01/05 03:04:35;;;;;;;3.35;1.52;;;9.00;99.90;;;;;;5012522;28;20026;-81
2024/01/05 03:07:01;;;;;;;2.80;1.20;;;9.10;99.90;;;;;;5014458;28;20030;-82
2024/01/05 03:09:27;;;;;;;1.25;1.15;;;9.10;99.90;;;;;;5012379;28;20030;-83
2024/01/05 03:11:52;;;;;;;3.25;1.25;;;9.10;99.90;;;;;;5014355;28;20147;-83
2024/01/05 03:14:18;;;;;;;2.92;1.38;;;9.10;99.90;;;;;;5012393;28;20520;-82
2024/01/05 03:16:43;;;;;;;4.68;1.50;;;9.20;99.90;;;;;;5019368;28;20029;-84
2024/01/05 03:19:09;;;;;;;3.75;1.65;;;9.10;99.90;;;;;;5013112;28;20097;-81
2024/01/05 03:21:34;;;;;;;2.47;1.30;;;9.10;99.90;;;;;;5014923;28;20017;-82
2024/01/05 03:24:00;;;;;;;2.55;1.23;;;9.10;99.90;;;;;;5014434;28;20053;-83
2024/01/05 03:26:25;;;;;;;1.85;1.00;;;9.10;99.90;;;;;;5015055;28;20029;-83
2024/01/05 03:28:51;;;;;;;4.20;1.52;;;9.20;99.90;;;;;;5014830;28;20026;-83
2024/01/05 03:31:17;;;;;;;4.78;1.70;;;9.20;99.90;;;;;;5015331;28;20238;-81
2024/01/05 03:33:44;;;;;;;2.03;1.30;;;9.20;99.90;;;;;;5012501;28;20064;-83
2024/01/05 03:36:10;;;;;;;1.98;1.58;;;9.20;99.90;;;;;;5012262;28;20550;-83
2024/01/05 03:38:36;;;;;;;4.30;1.58;;;9.20;99.90;;;;;;5014727;28;20113;-84
2024/01/05 03:41:01;;;;;;;6.50;1.52;;;9.20;99.90;;;;;;5014423;28;20077;-83
2024/01/05 03:43:27;;;;;;;3.55;1.55;;;9.20;99.90;;;;;;5012377;28;20034;-85
2024/01/05 03:45:53;;;;;;;3.15;1.23;;;9.20;99.90;;;;;;5016440;28;20022;-83
2024/01/05 03:48:18;;;;;;;2.25;1.20;;;9.20;99.90;;;;;;5010199;28;20037;-83
2024/01/05 03:50:44;;;;;;;5.25;1.60;;;9.20;99.90;;;;;;5011787;28;20030;-84
2024/01/05 03:53:09;;;;;;;3.30;1.30;;;9.20;99.90;;;;;;5010410;28;20026;-81
2024/01/05 03:55:35;;;;;;;4.18;1.65;;;9.30;99.90;;;;;;5015708;28;20025;-83
2024/01/05 03:58:01;;;;;;;4.85;1.63;;;9.20;99.90;;;;;;5016780;28;20066;-82
2024/01/05 04:00:26;;;;;;;5.25;1.30;;;9.30;99.90;;;;;;5015031;28;20026;-82
2024/01/05 04:02:52;;;;;;;4.03;1.40;;;9.30;99.90;;;;;;5014861;28;20109;-83
2024/01/05 04:05:17;;;;;;;3.45;1.30;;;9.30;99.90;;;;;;5013955;28;20120;-82
2024/01/05 04:07:43;;;;;;;3.53;1.40;;;9.30;99.90;;;;;;5006731;28;20086;-83
2024/01/05 04:10:09;;;;;;;5.78;1.67;;;9.20;99.90;;;;;;5013656;28;20034;-82
2024/01/05 04:12:35;;;;;;;3.50;1.48;;;9.30;99.90;;;;;;5013161;28;20018;-82
2024/01/05 04:15:00;;;;;;;3.25;1.10;;;9.30;99.90;;;;;;5012770;28;20030;-80
2024/01/05 04:17:26;;;;;;;7.00;2.03;;;9.30;99.90;;;;;;5013639;28;20018;-83
2024/01/05 04:19:51;;;;;;;5.72;1.65;;;9.30;99.90;;;;;;5013783;28;20469;-84
2024/01/05 04:22:17;;;;;;;2.58;1.20;;;9.30;99.90;;;;;;5012087;28;20030;-82
2024/01/05 04:24:43;;;;;;;5.63;1.50;;;9.40;99.90;;;;;;5007996;28;20042;-82
2024/01/05 04:27:08;;;;;;;5.10;1.48;;;9.40;99.90;;;;;;5007972;28;20520;-82
2024/01/05 04:29:34;;;;;;;4.97;1.35;;;9.40;99.90;;;;;;5015739;28;20030;-82
2024/01/05 04:31:59;;;;;;;3.50;1.40;;;9.40;99.90;;;;;;5008272;28;20030;-81
2024/01/05 04:34:25;;;;;;;4.55;1.45;;;9.40;99.90;;;;;;5013375;28;20072;-82
2024/01/05 04:36:50;;;;;;;4.72;1.38;;;9.30;99.90;;;;;;5009088;28;20022;-84
2024/01/05 04:39:16;;;;;;;3.75;1.30;;;9.30;99.90;;;;;;5012859;28;20026;-83
2024/01/05 04:41:43;;;;;;;5.15;1.67;;;9.30;99.90;;;;;;5012087;28;20571;-85
2024/01/05 04:44:08;;;;;;;6.13;1.60;;;9.40;99.90;;;;;;5007281;28;20113;-83
2024/01/05 04:46:34;;;;;;;6.00;1.70;;;9.30;99.90;;;;;;5015542;28;20080;-83
2024/01/05 04:48:59;;;;;;;4.65;1.52;;;9.30;99.90;;;;;;5015583;28;20023;-83
2024/01/05 04:51:25;;;;;;;4.05;1.80;;;9.30;99.90;;;;;;5014198;28;20273;-83
2024/01/05 04:53:51;;;;;;;4.15;1.52;;;9.40;99.90;;;;;;5014588;28;20025;-83
2024/01/05 04:56:17;;;;;;;5.55;1.40;;;9.40;99.90;;;;;;5010757;28;20022;-82
2024/01/05 04:58:42;;;;;;;3.85;1.20;;;9.30;99.90;;;;;;5013395;28;20109;-84
2024/01/05 05:01:08;;;;;;;4.50;1.30;;;9.30;99.90;;;;;;5011659;28;20025;-83
2024/01/05 05:03:34;;;;;;;4.47;1.58;;;9.50;99.90;;;;;;5013266;28;20022;-84
2024/01/05 05:05:59;;;;;;;2.92;1.40;;;9.30;99.90;;;;;;5011508;28;20026;-82
2024/01/05 05:08:25;;;;;;;2.83;1.40;;;9.40;99.90;;;;;;5012214;28;20345;-84
2024/01/05 05:10:50;;;;;;;4.35;1.27;;;9.40;99.90;;;;;;5012959;28;20021;-84
2024/01/05 05:13:16;;;;;;;3.30;1.30;;;9.30;99.90;;;;;;5012470;28;20041;-82
2024/01/05 05:15:42;;;;;;;2.70;1.70;;;9.30;99.90;;;;;;5013901;28;20045;-84
2024/01/05 05:18:07;;;;;;;2.85;1.10;;;9.40;99.90;;;;;;5007690;28;20386;-82
2024/01/05 05:20:33;;;;;;;4.90;1.27;;;9.40;99.90;;;;;;5012213;28;20033;-83
2024/01/05 05:22:58;;;;;;;5.35;1.30;;;9.40;99.90;;;;;;5014219;28;20025;-82
2024/01/05 05:25:24;;;;;;;2.17;1.20;;;9.40;99.90;;;;;;5017114;28;20037;-82
2024/01/05 05:27:50;;;;;;;4.30;1.38;;;9.40;99.80;;;;;;5013841;28;20408;-83
2024/01/05 05:30:16;;;;;;;3.47;1.23;;;9.40;99.80;;;;;;5015302;28;20026;-82
2024/01/05 05:32:41;;;;;;;5.15;1.85;;;9.40;99.80;;;;;;5008579;28;20109;-84
2024/01/05 05:35:07;;;;;;;3.75;1.17;;;9.40;99.60;;;;;;5011108;28;20034;-83
2024/01/05 05:37:33;;;;;;;4.07;1.10;;;9.40;99.50;;;;;;5009883;28;20068;-83
2024/01/05 05:39:58;;;;;;;2.97;1.00;;;9.40;99.50;;;;;;5009377;28;20034;-82
2024/01/05 05:42:24;;;;;;;5.25;1.25;;;9.40;99.50;;;;;;5013448;28;20034;-82
2024/01/05 05:44:49;;;;;;;4.20;1.23;;;9.40;99.40;;;;;;5012350;28;20052;-82
2024/01/05 05:47:15;;;;;;;2.72;1.15;;;9.40;99.30;;;;;;5012469;28;20393;-81
2024/01/05 05:49:40;;;;;;;2.70;1.25;;;9.40;99.30;;;;;;5014593;28;20425;-84
2024/01/05 05:52:06;;;;;;;2.60;1.30;;;9.30;99.30;;;;;;5011993;28;20022;-81
2024/01/05 05:54:32;;;;;;;2.75;1.23;;;9.30;99.40;;;;;;5011955;28;20068;-83
2024/01/05 05:56:57;;;;;;;1.55;1.00;;;9.30;99.40;;;;;;5014891;28;20080;-81
2024/01/05 05:59:23;;;;;;;3.35;1.20;;;9.40;99.20;;;;;;5011046;28;20117;-82
2024/01/05 06:01:49;;;;;;;2.42;1.00;;;9.30;99.10;;;;;;5010916;28;20026;-83
2024/01/05 06:04:14;;;;;;;2.63;0.93;;;9.30;99.20;;;;;;5014471;28;20296;-81
2024/01/05 06:06:40;;;;;;;3.72;1.40;;;9.40;99.20;;;;;;5012785;28;20022;-81
2024/01/05 06:09:07;;;;;;;4.60;1.23;;;9.30;98.90;;;;;;5012508;28;20076;-81
2024/01/05 06:11:33;;;;;;;3.00;1.20;;;9.30;99.00;;;;;;5011389;28;20398;-85
2024/01/05 06:13:59;;;;;;;3.97;1.25;;;9.30;98.80;;;;;;5015436;28;20125;-84
2024/01/05 06:16:25;;;;;;;2.45;1.10;;;9.30;98.90;;;;;;5017330;28;20357;-83
2024/01/05 06:18:50;;;;;;;4.00;1.05;;;9.40;98.80;;;;;;5015289;28;20051;-81
2024/01/05 06:21:16;;;;;;;5.38;1.15;;;9.40;98.70;;;;;;5017855;28;20025;-84
2024/01/05 06:23:41;;;;;;;3.33;1.13;;;9.40;98.60;;;;;;5016530;28;20022;-81
2024/01/05 06:26:07;;;;;;;1.95;1.05;;;9.40;98.50;;;;;;5016561;28;20057;-82
2024/01/05 06:28:33;;;;;;;4.45;1.45;;;9.30;98.60;;;;;;5018191;28;20032;-83
2024/01/05 06:30:58;;;;;;;2.35;1.05;;;9.30;98.50;;;;;;5011699;28;20022;-81
2024/01/05 06:33:24;;;;;;;2.78;1.20;;;9.30;98.60;;;;;;5016743;28;20029;-82
2024/01/05 06:35:49;;;;;;;1.38;1.00;;;9.30;98.50;;;;;;5013981;28;20217;-81
2024/01/05 06:38:15;;;;;;;1.83;1.00;;;9.30;98.50;;;;;;5013842;28;20474;-83
2024/01/05 06:40:41;;;;;;;4.10;1.10;;;9.30;98.40;;;;;;5017638;28;20116;-81
2024/01/05 06:43:07;;;;;;;1.90;0.85;;;9.30;98.40;;;;;;5017157;28;20022;-82
2024/01/05 06:45:33;;;;;;;4.00;1.15;;;9.40;98.40;;;;;;5015098;28;20021;-83
2024/01/05 06:47:59;;;;;;;3.00;1.10;;;9.40;98.40;;;;;;5014362;28;20041;-80
2024/01/05 06:50:24;;;;;;;3.28;0.90;;;9.40;98.20;;;;;;5016813;28;20101;-83
2024/01/05 06:52:50;;;;;;;3.00;1.27;;;9.50;98.40;;;;;;5015714;28;20540;-81
2024/01/05 06:55:16;;;;;;;1.45;0.90;;;9.50;97.90;;;;;;5014133;28;20532;-82
2024/01/05 06:57:44;;;;;;;1.52;0.80;;;9.50;97.90;;;;;;5015521;28;20022;-80
2024/01/05 07:00:10;;;;;;;2.60;1.10;;;9.50;97.80;;;;;;5015060;28;20026;-81
2024/01/05 07:02:36;;;;;;;1.30;0.90;;;9.50;97.90;;;;;;5012948;28;20036;-81
2024/01/05 07:05:05;;;;;;;1.95;1.00;;;9.50;97.80;;;;;;5015759;28;20029;-82
2024/01/05 07:07:30;;;;;;;3.92;1.00;;;9.50;97.80;;;;;;5015843;28;20052;-82
2024/01/05 07:09:56;;;;;;;2.13;0.90;;;9.50;97.50;;;;;;5014010;28;20034;-82
2024/01/05 07:12:27;;;;;;;3.40;0.90;;;9.40;97.60;;;;;;5012664;28;20029;-82
2024/01/05 07:14:52;;;;;;;3.22;0.93;;;9.40;97.70;;;;;;5008657;28;20026;-81
2024/01/05 07:17:18;;;;;;;2.28;1.10;;;9.50;97.70;;;;;;5014932;28;20110;-80
2024/01/05 07:19:43;;;;;;;3.42;1.20;;;9.50;97.70;;;;;;5015069;28;20138;-81
2024/01/05 07:22:09;;;;;;;2.00;0.82;;;9.50;97.40;;;;;;5010826;28;20057;-81
2024/01/05 07:24:37;;;;;;;0.90;0.80;;;9.50;97.30;;;;;;5014007;28;20034;-81
2024/01/05 07:27:03;;;;;;;1.25;1.00;;;9.50;97.30;;;;;;5015625;28;20022;-80
2024/01/05 07:29:28;;;;;;;3.30;0.73;;;9.50;97.30;;;;;;5019090;28;20025;-82
2024/01/05 07:31:54;;;;;;;2.78;0.70;;;9.50;97.30;;;;;;5016890;28;20058;-79
2024/01/05 07:34:20;;;;;;;2.00;0.80;;;9.50;97.20;;;;;;5013849;28;20048;-81
2024/01/05 07:36:45;;;;;;;1.33;0.65;;;9.50;97.10;;;;;;5016066;28;20022;-82
2024/01/05 07:39:11;;;;;;;1.77;0.60;;;9.60;97.20;;;;;;5014337;28;20030;-80
2024/01/05 07:41:38;;;;;;;1.10;0.55;;;9.60;97.20;;;;;;5018713;28;20029;-83
2024/01/05 07:44:04;;;;;;;0.80;0.80;;;9.60;97.10;;;;;;5018758;28;20065;-80
2024/01/05 07:46:30;;;;;;;2.75;0.90;;;9.60;97.20;;;;;;5014732;28;20033;-81
2024/01/05 07:48:56;;;;;;;1.88;1.08;;;9.50;97.10;;;;;;5017761;28;20050;-81
2024/01/05 07:51:22;;;;;;;3.58;1.08;;;9.50;97.00;;;;;;5013321;28;20149;-83
2024/01/05 07:53:48;;;;;;;2.15;1.00;;;9.40;96.80;;;;;;5016361;28;20022;-82
2024/01/05 07:56:17;;;;;;;0.88;0.80;;;9.40;96.90;;;;;;5014837;28;20434;-83
2024/01/05 07:58:45;;;;;;;2.38;0.70;;;9.40;96.90;;;;;;5012419;28;20176;-81
2024/01/05 08:01:15;;;;;;;3.80;0.93;;;9.40;97.00;;;;;;5007237;28;20022;-82
2024/01/05 08:03:42;;;;;;;3.22;0.90;;;9.40;96.80;;;;;;5015655;28;20045;-81
2024/01/05 08:06:07;;;;;;;2.45;1.10;;;9.40;96.50;;;;;;5018443;28;20214;-81
2024/01/05 08:08:33;;;;;;;1.15;0.90;;;9.40;96.00;;;;;;5015435;28;20025;-81
2024/01/05 08:10:58;;;;;;;0.70;0.70;;;9.40;95.60;;;;;;5013840;28;20060;-83
2024/01/05 08:13:26;;;;;;;1.60;0.60;;;9.30;95.40;;;;;;5009815;28;20026;-83
2024/01/05 08:15:52;;;;;;;0.50;0.50;;;9.30;94.90;;;;;;5015457;28;20393;-84
2024/01/05 08:18:17;;;;;;;0.50;0.50;;;9.30;94.80;;;;;;5013653;28;20516;-82
2024/01/05 08:20:43;;;;;;;0.73;0.50;;;9.30;94.60;;;;;;5014181;28;20030;-83
2024/01/05 08:23:08;;;;;;;0.63;0.52;;;9.30;94.00;;;;;;5016032;28;20018;-81
2024/01/05 08:25:34;;;;;;;0.80;0.70;;;9.30;93.70;;;;;;5014964;28;20493;-80
2024/01/05 08:28:02;;;;;;;2.22;0.57;;;9.30;93.60;;;;;;5013419;28;20496;-83
2024/01/05 08:30:27;;;;;;;1.00;0.60;;;9.30;93.30;;;;;;5010091;28;20257;-82
2024/01/05 08:32:55;;;;;;;1.45;0.60;;;9.30;93.30;;;;;;5011335;28;20543;-82
2024/01/05 08:35:20;;;;;;;2.58;0.90;;;9.30;93.00;;;;;;5012009;28;20014;-81
2024/01/05 08:37:46;;;;;;;0.70;0.47;;;9.20;92.30;;;;;;5014328;28;20474;-79
2024/01/05 08:40:12;;;;;;;0.50;0.50;;;9.20;92.30;;;;;;5012861;28;20265;-79
2024/01/05 08:42:37;;;;;;;0.60;0.60;;;9.20;92.30;;;;;;5009948;28;20034;-78
2024/01/05 08:45:04;;;;;;;0.75;0.50;;;9.20;92.20;;;;;;5011500;28;20095;-80
2024/01/05 08:47:29;;;;;;;0.40;0.40;;;9.20;92.20;;;;;;5010506;28;20048;-81
2024/01/05 08:49:55;;;;;;;1.60;0.70;;;9.20;92.30;;;;;;5011341;28;20029;-78
2024/01/05 08:52:21;;;;;;;1.05;0.70;;;9.20;92.20;;;;;;5010360;28;20446;-83
2024/01/05 08:54:46;;;;;;;0.52;0.52;;;9.10;92.10;;;;;;5012277;28;20456;-83
2024/01/05 08:57:12;;;;;;;0.50;0.50;;;9.10;92.20;;;;;;5010899;28;20018;-81
2024/01/05 08:59:39;;;;;;;0.55;0.55;;;9.00;92.10;;;;;;5009743;28;20032;-80
2024/01/05 09:02:05;;;;;;;0.98;0.70;;;9.00;92.20;;;;;;5008005;28;20018;-79
2024/01/05 09:04:31;;;;;;;0.60;0.60;;;8.80;92.40;;;;;;5002740;28;20057;-81
2024/01/05 09:06:58;;;;;;;0.95;0.60;;;8.80;92.70;;;;;;5008807;28;20083;-78
2024/01/05 09:09:24;;;;;;;0.75;0.70;;;8.70;92.90;;;;;;5009697;28;20029;-77
2024/01/05 09:11:49;;;;;;;0.55;0.50;;;8.70;93.10;;;;;;5008139;28;20030;-79
2024/01/05 09:14:15;;;;;;;0.60;0.60;;;8.70;93.30;;;;;;5007956;28;20440;-77
2024/01/05 09:16:40;;;;;;;0.88;0.70;;;8.60;93.40;;;;;;5008651;28;20029;-79
2024/01/05 09:19:07;;;;;;;0.63;0.50;;;8.60;93.60;;;;;;5008880;28;20026;-78
2024/01/05 09:21:33;;;;;;;0.77;0.70;;;8.60;93.70;;;;;;5003510;28;20026;-81
2024/01/05 09:23:58;;;;;;;0.60;0.60;;;8.60;93.90;;;;;;5009822;28;20034;-81
2024/01/05 09:26:24;;;;;;;0.60;0.60;;;8.60;94.00;;;;;;5010423;28;20697;-81
2024/01/05 09:28:50;;;;;;;1.75;0.60;;;8.60;94.10;;;;;;5007281;28;20026;-79
2024/01/05 09:31:16;;;;;;;1.80;1.00;;;8.60;94.20;;;;;;5009587;28;20386;-78
2024/01/05 09:33:43;;;;;;;0.73;0.73;;;8.50;94.20;;;;;;5009502;28;20033;-79
2024/01/05 09:36:08;;;;;;;1.30;0.88;;;8.50;94.40;;;;;;5006883;28;20117;-78
2024/01/05 09:38:35;;;;;;;2.03;0.70;;;8.40;94.50;;;;;;5010917;28;20068;-82
2024/01/05 09:41:02;;;;;;;0.63;0.63;;;8.40;94.60;;;;;;5008114;28;20048;-81
2024/01/05 09:43:27;;;;;;;1.08;0.98;;;8.40;94.70;;;;;;5014181;28;20398;-82
2024/01/05 09:45:55;;;;;;;1.02;0.80;;;8.40;94.70;;;;;;5009318;28;20026;-80
2024/01/05 09:48:22;;;;;;;0.70;0.60;;;8.40;94.60;;;;;;5006179;28;20034;-80
2024/01/05 09:50:52;;;;;;;1.58;0.73;;;8.30;94.60;;;;;;5009032;28;20026;-82
2024/01/05 09:53:19;;;;;;;0.60;0.60;;;8.30;94.70;;;;;;5005858;28;20026;-81
2024/01/05 09:55:49;;;;;;;0.60;0.60;;;8.20;95.00;;;;;;5008841;28;20033;-81
2024/01/05 09:58:15;;;;;;;0.50;0.50;;;8.30;94.80;;;;;;5013472;28;21505;-79
2024/01/05 10:00:47;;;;;;;0.77;0.70;;;8.30;94.90;;;;;;5010291;28;20026;-82
2024/01/05 10:03:20;;;;;;;;;;;8.30;94.80;;;;;;5009511;28;20018;-82
2024/01/05 10:05:45;;;;;;;1.75;0.68;;;8.30;94.70;;;;;;5009832;28;19909;-85
2024/01/05 10:08:11;;;;;;;0.82;0.57;;;8.20;94.60;;;;;;5007296;28;20022;-77
2024/01/05 10:10:55;;;;;;;0.50;0.50;;;8.10;94.50;;;;;;5012169;28;20036;-79
2024/01/05 10:13:20;;;;;;;0.50;0.50;;;8.10;94.60;;;;;;5006743;28;20021;-82
2024/01/05 10:15:55;;;;;;;1.17;0.60;;;8.10;94.60;;;;;;5011978;28;20057;-82
2024/01/05 10:18:21;;;;;;;0.60;0.60;;;8.10;94.50;;;;;;5009010;28;20436;-82
2024/01/05 10:20:47;;;;;;;0.68;0.68;;;8.10;94.50;;;;;;5006231;28;20019;-81
2024/01/05 10:23:13;;;;;;;0.60;0.60;;;8.00;94.40;;;;;;5007082;28;20490;-78
2024/01/05 10:25:39;;;;;;;0.70;0.70;;;8.00;94.30;;;;;;5012410;28;20022;-81
2024/01/05 10:28:24;;;;;;;0.63;0.63;;;7.90;94.20;;;;;;5009839;28;20050;-80
2024/01/05 10:30:51;;;;;;;1.00;0.70;;;7.90;94.40;;;;;;5011579;28;20030;-79
2024/01/05 10:33:18;;;;;;;1.42;0.70;;;7.90;94.40;;;;;;5010874;28;20370;-83
2024/01/05 10:35:44;;;;;;;0.90;0.80;;;7.90;94.60;;;;;;5009783;28;20547;-82
2024/01/05 10:38:13;;;;;;;0.70;0.70;;;7.90;94.60;;;;;;5010282;28;20053;-83
2024/01/05 10:40:39;;;;;;;0.90;0.70;;;7.80;94.70;;;;;;5004639;28;20061;-81
2024/01/05 10:43:13;;;;;;;0.80;0.80;;;7.80;94.90;;;;;;5012871;28;20465;-81
2024/01/05 10:45:40;;;;;;;0.70;0.70;;;7.80;95.00;;;;;;5010005;28;20091;-82
2024/01/05 10:48:13;;;;;;;1.02;1.00;;;7.80;95.10;;;;;;5013960;28;20018;-80
2024/01/05 10:50:41;;;;;;;0.73;0.73;;;7.80;95.50;;;;;;5018342;28;20093;-82
2024/01/05 10:53:10;;;;;;;0.90;0.90;;;7.80;95.40;;;;;;5013286;28;20041;-81
2024/01/05 10:55:39;;;;;;;1.20;1.10;;;7.80;95.50;;;;;;5013130;28;20017;-82
2024/01/05 10:58:09;;;;;;;1.15;1.05;;;7.80;95.60;;;;;;5005871;28;20394;-79
2024/01/05 11:00:36;;;;;;;1.00;0.90;;;7.80;95.60;;;;;;5014978;28;20100;-81
2024/01/05 11:03:10;;;;;;;1.10;1.00;;;7.80;95.70;;;;;;5016954;28;20064;-80
2024/01/05 11:05:39;;;;;;;2.10;1.20;;;7.70;95.80;;;;;;5008190;28;20030;-80
2024/01/05 11:08:05;;;;;;;0.93;0.93;;;7.80;95.90;;;;;;5014814;28;20111;-80
2024/01/05 11:10:46;;;;;;;1.23;1.00;;;7.70;95.90;;;;;;5016563;28;20117;-82
2024/01/05 11:13:34;;;;;;;1.23;1.10;;;7.80;96.00;;;;;;5013849;28;20032;-80
2024/01/05 11:16:26;;;;;;;1.10;1.00;;;7.80;96.00;;;;;;5013171;28;20028;-83
2024/01/05 11:19:11;;;;;;;0.98;0.95;;;7.80;96.00;;;;;;5015145;28;20072;-84
2024/01/05 11:21:54;;;;;;;1.08;1.05;;;7.80;96.00;;;;;;5008601;28;20029;-84
2024/01/05 11:24:21;;;;;;;1.75;1.00;;;7.80;96.00;;;;;;5011140;28;20377;-83
2024/01/05 11:26:47;;;;;;;1.15;1.02;;;7.90;96.00;;;;;;5013413;28;20034;-81
2024/01/05 11:29:13;;;;;;;1.00;0.93;;;7.90;96.00;;;;;;5012835;28;20054;-81
2024/01/05 11:31:48;;;;;;;1.05;1.05;;;7.90;96.00;;;;;;5014283;28;20029;-83
2024/01/05 11:34:28;;;;;;;1.10;1.00;;;7.90;96.00;;;;;;5010097;28;20033;-79
2024/01/05 11:36:55;;;;;;;1.08;1.00;;;7.90;96.00;;;;;;5011629;28;20030;-83
2024/01/05 11:39:41;;;;;;;1.30;1.20;;;7.90;96.00;;;;;;5015272;28;20501;-83
2024/01/05 11:42:07;;;;;;;1.52;1.42;;;7.90;96.00;;;;;;5018796;28;20044;-82
2024/01/05 11:44:34;;;;;;;1.67;1.00;;;7.90;95.90;;;;;;5012743;28;20472;-82
2024/01/05 11:47:01;;;;;;;0.80;0.80;;;7.90;96.00;;;;;;5011486;28;20018;-83
2024/01/05 11:49:41;;;;;;;1.20;1.10;;;7.90;96.00;;;;;;5008790;28;20034;-83
2024/01/05 11:52:07;;;;;;;2.08;1.50;;;8.00;96.00;;;;;;5011800;28;20029;-83
2024/01/05 11:54:33;;;;;;;1.00;1.00;;;7.90;96.00;;;;;;5012363;28;20171;-82
2024/01/05 11:57:00;;;;;;;1.10;1.00;;;7.90;96.10;;;;;;5012284;28;20032;-83
2024/01/05 11:59:26;;;;;;;1.50;1.30;;;7.90;96.20;;;;;;5010639;28;20032;-81
2024/01/05 12:01:53;;;;;;;1.45;1.30;;;7.90;96.30;;;;;;5012465;28;20026;-82
2024/01/05 12:04:19;;;;;;;1.40;1.30;;;7.80;96.40;;;;;;5011764;28;20033;-83
2024/01/05 12:06:54;;;;;;;1.42;1.27;;;7.80;96.50;;;;;;5012254;28;20030;-83
2024/01/05 12:09:23;;;;;;;1.55;1.30;;;7.80;96.60;;;;;;5008672;28;20029;-82
2024/01/05 12:11:48;;;;;;;2.75;1.30;;;7.90;96.70;;;;;;5008149;28;20032;-82
2024/01/05 12:14:27;;;;;;;1.20;1.10;;;7.90;96.70;;;;;;5008282;28;20022;-81
2024/01/05 12:16:52;;;;;;;1.10;1.00;;;7.90;96.80;;;;;;5026161;28;20057;-80
2024/01/05 12:19:21;;;;;;;0.90;0.90;;;7.90;96.80;;;;;;5014517;28;20018;-83
2024/01/05 12:21:52;;;;;;;1.67;1.15;;;8.00;96.70;;;;;;5010882;28;20048;-81
2024/01/05 12:24:18;;;;;;;0.93;0.85;;;8.00;96.70;;;;;;5010337;28;20075;-79
2024/01/05 12:26:44;;;;;;;1.52;0.90;;;8.00;96.60;;;;;;5015077;28;20461;-83
2024/01/05 12:29:10;;;;;;;2.35;1.20;;;8.10;96.70;;;;;;5013565;28;20025;-82
2024/01/05 12:31:36;;;;;;;1.33;1.23;;;8.10;96.60;;;;;;5015264;28;20537;-84
2024/01/05 12:34:02;;;;;;;1.48;1.38;;;8.10;96.60;;;;;;5013177;28;20025;-83
2024/01/05 12:36:28;;;;;;;1.85;1.20;;;8.10;96.60;;;;;;5013246;28;20021;-83
2024/01/05 12:38:54;;;;;;;1.67;1.27;;;8.00;96.50;;;;;;5016418;28;20026;-83
2024/01/05 12:41:20;;;;;;;3.33;1.30;;;8.00;96.60;;;;;;5015194;28;20033;-82
2024/01/05 12:43:51;;;;;;;1.45;1.10;;;8.00;96.60;;;;;;5018511;28;20486;-80
2024/01/05 12:46:18;;;;;;;1.40;1.30;;;8.00;96.60;;;;;;5017523;28;20108;-81
2024/01/05 12:48:44;;;;;;;3.30;1.30;;;8.00;96.70;;;;;;5019486;28;20025;-84
2024/01/05 12:51:15;;;;;;;1.83;1.10;;;8.00;96.80;;;;;;5014287;28;20052;-80
2024/01/05 12:53:41;;;;;;;1.10;1.00;;;8.00;96.90;;;;;;5015442;28;20104;-82
2024/01/05 12:56:11;;;;;;;1.77;1.27;;;8.00;96.90;;;;;;5012643;28;20770;-84